createdAt,value
2018-10-02T00:02:10.761Z,100431.45
2018-10-02T00:04:38.251Z,100438.45
2018-10-02T00:07:06.327Z,100432.20
2018-10-02T00:09:34.117Z,100436.55
2018-10-02T00:12:06.707Z,100438.66
2018-10-02T00:14:34.175Z,100428.89
2018-10-02T00:17:02.617Z,100427.11
2018-10-02T00:19:30.088Z,100423.59
2018-10-02T00:21:57.545Z,100420.94
2018-10-02T00:24:24.989Z,100411.75
2018-10-02T00:26:52.454Z,100412.61
2018-10-02T00:29:19.898Z,100418.30
2018-10-02T00:31:47.799Z,100412.16
2018-10-02T00:34:15.373Z,100407.69
2018-10-02T00:36:42.882Z,100411.58
2018-10-02T00:39:10.331Z,100401.81
2018-10-02T00:41:38.161Z,100402.22
2018-10-02T00:44:05.606Z,100410.55
2018-10-02T00:46:33.134Z,100407.03
2018-10-02T00:49:00.887Z,100404.00
2018-10-02T00:51:28.834Z,100395.67
2018-10-02T00:53:56.331Z,100404.09
2018-10-02T00:56:23.820Z,100400.23
2018-10-02T00:58:52.906Z,100398.49
2018-10-02T01:01:21.422Z,100396.91
2018-10-02T01:03:48.861Z,100399.73
2018-10-02T01:06:17.785Z,100402.08
2018-10-02T01:08:45.237Z,100402.66
2018-10-02T01:11:14.298Z,100405.02
2018-10-02T01:13:41.778Z,100407.00
2018-10-02T01:16:09.222Z,100409.84
2018-10-02T01:18:36.673Z,100407.27
2018-10-02T01:21:04.107Z,100409.55
2018-10-02T01:23:31.593Z,100407.47
2018-10-02T01:25:59.417Z,100406.60
2018-10-02T01:28:26.846Z,100396.95
2018-10-02T01:30:54.320Z,100403.12
2018-10-02T01:33:22.123Z,100403.12
2018-10-02T01:35:49.646Z,100394.14
2018-10-02T01:38:17.198Z,100388.27
2018-10-02T01:40:44.638Z,100388.56
2018-10-02T01:43:12.645Z,100389.31
2018-10-02T01:45:40.218Z,100389.69
2018-10-02T01:48:07.672Z,100386.47
2018-10-02T01:50:35.550Z,100387.62
2018-10-02T01:53:02.984Z,100378.64
2018-10-02T01:55:30.458Z,100365.77
2018-10-02T01:57:59.578Z,100367.62
2018-10-02T02:00:27.416Z,100364.52
2018-10-02T02:02:54.869Z,100355.70
2018-10-02T02:05:22.338Z,100358.77
2018-10-02T02:07:49.779Z,100348.42
2018-10-02T02:10:18.677Z,100356.74
2018-10-02T02:12:46.161Z,100349.20
2018-10-02T02:15:13.660Z,100348.70
2018-10-02T02:17:41.335Z,100354.38
2018-10-02T02:20:08.788Z,100358.27
2018-10-02T02:22:37.289Z,100357.33
2018-10-02T02:25:06.284Z,100355.42
2018-10-02T02:27:34.199Z,100351.86
2018-10-02T02:30:02.377Z,100351.28
2018-10-02T02:32:29.910Z,100359.11
2018-10-02T02:34:57.841Z,100349.66
2018-10-02T02:37:25.329Z,100353.15
2018-10-02T02:39:52.840Z,100343.78
2018-10-02T02:42:20.461Z,100339.35
2018-10-02T02:44:48.658Z,100340.09
2018-10-02T02:47:21.245Z,100331.77
2018-10-02T02:49:54.482Z,100330.45
2018-10-02T02:52:24.740Z,100326.84
2018-10-02T02:54:54.253Z,100328.17
2018-10-02T02:57:21.756Z,100316.61
2018-10-02T02:59:49.252Z,100315.28
2018-10-02T03:02:16.783Z,100316.61
2018-10-02T03:04:46.514Z,100306.50
2018-10-02T03:07:14.000Z,100306.58
2018-10-02T03:09:41.499Z,100316.44
2018-10-02T03:12:10.361Z,100307.91
2018-10-02T03:14:37.902Z,100306.80
2018-10-02T03:17:05.381Z,100308.78
2018-10-02T03:19:33.995Z,100303.28
2018-10-02T03:22:01.493Z,100299.59
2018-10-02T03:24:28.997Z,100294.87
2018-10-02T03:26:58.988Z,100292.39
2018-10-02T03:29:26.513Z,100286.72
2018-10-02T03:31:53.999Z,100288.98
2018-10-02T03:34:22.244Z,100279.34
2018-10-02T03:36:50.408Z,100278.77
2018-10-02T03:39:19.062Z,100276.03
2018-10-02T03:41:46.989Z,100274.21
2018-10-02T03:44:14.512Z,100262.95
2018-10-02T03:46:41.988Z,100256.98
2018-10-02T03:49:09.512Z,100247.16
2018-10-02T03:51:37.002Z,100239.58
2018-10-02T03:54:04.500Z,100222.73
2018-10-02T03:56:32.236Z,100221.77
2018-10-02T03:59:03.349Z,100238.55
2018-10-02T04:01:30.856Z,100247.23
2018-10-02T04:03:58.346Z,100247.52
2018-10-02T04:06:25.858Z,100245.98
2018-10-02T04:08:57.128Z,100239.16
2018-10-02T04:11:24.609Z,100228.38
2018-10-02T04:13:52.105Z,100236.12
2018-10-02T04:16:19.588Z,100236.03
2018-10-02T04:18:48.392Z,100234.03
2018-10-02T04:21:19.937Z,100223.71
2018-10-02T04:23:47.434Z,100218.69
2018-10-02T04:26:15.265Z,100210.52
2018-10-02T04:28:42.748Z,100205.50
2018-10-02T04:31:10.250Z,100208.89
2018-10-02T04:33:38.234Z,100203.88
2018-10-02T04:36:06.477Z,100195.23
2018-10-02T04:38:33.941Z,100203.11
2018-10-02T04:41:01.828Z,100216.65
2018-10-02T04:43:29.338Z,100198.73
2018-10-02T04:45:56.821Z,100190.95
2018-10-02T04:48:25.637Z,100188.45
2018-10-02T04:50:53.119Z,100186.86
2018-10-02T04:53:20.640Z,100186.14
2018-10-02T04:55:50.472Z,100185.00
2018-10-02T04:58:17.968Z,100190.09
2018-10-02T05:00:45.481Z,100192.92
2018-10-02T05:03:15.288Z,100168.45
2018-10-02T05:05:42.837Z,100168.27
2018-10-02T05:08:10.412Z,100174.69
2018-10-02T05:13:14.081Z,100171.80
2018-10-02T05:15:42.024Z,100172.95
2018-10-02T05:18:09.574Z,100164.48
2018-10-02T05:20:37.210Z,100161.73
2018-10-02T05:23:05.060Z,100160.68
2018-10-02T05:25:32.601Z,100160.59
2018-10-02T05:28:00.642Z,100153.83
2018-10-02T05:30:30.093Z,100156.02
2018-10-02T05:32:58.414Z,100159.03
2018-10-02T05:35:26.011Z,100155.79
2018-10-02T05:37:54.658Z,100168.11
2018-10-02T05:40:22.204Z,100161.38
2018-10-02T05:42:49.777Z,100161.38
2018-10-02T05:45:17.668Z,100164.89
2018-10-02T05:47:45.698Z,100156.43
2018-10-02T05:50:13.226Z,100156.80
2018-10-02T05:52:41.841Z,100151.89
2018-10-02T05:55:09.388Z,100149.60
2018-10-02T05:57:37.986Z,100151.48
2018-10-02T06:00:09.241Z,100150.48
2018-10-02T06:02:38.422Z,100148.09
2018-10-02T06:05:05.986Z,100145.21
2018-10-02T06:07:34.009Z,100143.78
2018-10-02T06:10:02.179Z,100150.55
2018-10-02T06:12:30.885Z,100140.34
2018-10-02T06:14:58.808Z,100131.95
2018-10-02T06:17:56.634Z,100128.25
2018-10-02T06:20:27.747Z,100127.11
2018-10-02T06:22:55.364Z,100106.98
2018-10-02T06:25:23.214Z,100103.09
2018-10-02T06:27:52.103Z,100101.39
2018-10-02T06:30:20.335Z,100100.53
2018-10-02T06:32:48.005Z,100101.03
2018-10-02T06:35:16.912Z,100108.21
2018-10-02T06:37:44.449Z,100111.63
2018-10-02T06:40:13.259Z,100108.98
2018-10-02T06:42:43.709Z,100114.28
2018-10-02T06:45:14.311Z,100116.56
2018-10-02T06:47:43.065Z,100104.63
2018-10-02T06:50:10.982Z,100093.44
2018-10-02T06:52:38.818Z,100093.44
2018-10-02T06:55:07.033Z,100086.68
2018-10-02T06:57:36.160Z,100075.98
2018-10-02T07:00:04.301Z,100068.39
2018-10-02T07:02:32.551Z,100068.89
2018-10-02T07:05:00.462Z,100063.45
2018-10-02T07:07:28.082Z,100059.88
2018-10-02T07:09:55.618Z,100070.86
2018-10-02T07:12:23.590Z,100069.44
2018-10-02T07:14:52.331Z,100065.73
2018-10-02T07:17:20.786Z,100068.66
2018-10-02T07:19:50.213Z,100075.20
2018-10-02T07:22:18.506Z,100081.02
2018-10-02T07:27:23.623Z,100074.56
2018-10-02T07:29:52.303Z,100078.45
2018-10-02T07:32:20.696Z,100077.86
2018-10-02T07:34:50.297Z,100068.48
2018-10-02T07:37:17.924Z,100066.92
2018-10-02T07:39:47.243Z,100068.62
2018-10-02T07:42:15.157Z,100077.31
2018-10-02T07:44:43.514Z,100077.72
2018-10-02T07:47:12.350Z,100075.43
2018-10-02T07:49:43.673Z,100082.80
2018-10-02T07:52:15.437Z,100083.90
2018-10-02T07:54:46.512Z,100074.42
2018-10-02T07:57:17.718Z,100073.73
2018-10-02T07:59:45.725Z,100072.50
2018-10-02T08:02:15.242Z,100071.86
2018-10-02T08:04:46.792Z,100062.30
2018-10-02T08:07:15.346Z,100056.26
2018-10-02T08:09:43.618Z,100049.85
2018-10-02T08:12:13.846Z,100063.91
2018-10-02T08:14:41.801Z,100061.08
2018-10-02T08:17:15.504Z,100053.34
2018-10-02T08:19:43.469Z,100058.19
2018-10-02T08:22:12.104Z,100047.07
2018-10-02T08:24:39.629Z,100046.61
2018-10-02T08:27:08.576Z,100062.99
2018-10-02T08:29:36.830Z,100050.09
2018-10-02T08:32:07.688Z,100046.98
2018-10-02T08:34:39.813Z,100036.83
2018-10-02T08:37:08.300Z,100042.41
2018-10-02T08:39:37.462Z,100038.42
2018-10-02T08:42:06.393Z,100041.35
2018-10-02T08:44:34.564Z,100035.55
2018-10-02T08:47:03.187Z,100027.49
2018-10-02T08:49:31.206Z,100026.06
2018-10-02T08:51:58.883Z,100033.06
2018-10-02T08:54:28.278Z,100032.11
2018-10-02T08:56:57.948Z,100032.01
2018-10-02T09:02:08.673Z,100015.17
2018-10-02T09:04:38.313Z,100000.61
2018-10-02T09:07:05.951Z,99998.03
2018-10-02T09:09:37.230Z,100000.22
2018-10-02T09:12:04.813Z,99997.83
2018-10-02T09:14:32.576Z,99989.87
2018-10-02T09:17:02.337Z,99983.89
2018-10-02T09:19:30.924Z,99981.06
2018-10-02T09:21:58.511Z,99986.77
2018-10-02T09:24:26.534Z,99973.55
2018-10-02T09:26:54.111Z,99975.73
2018-10-02T09:29:22.494Z,99970.95
2018-10-02T09:31:56.747Z,99985.37
2018-10-02T09:34:30.169Z,99974.16
2018-10-02T09:37:04.027Z,99967.31
2018-10-02T09:39:37.088Z,99962.02
2018-10-02T09:42:12.009Z,99968.68
2018-10-02T09:44:39.963Z,99965.55
2018-10-02T09:47:11.241Z,99980.89
2018-10-02T09:49:40.224Z,99977.17
2018-10-02T09:52:08.645Z,99970.28
2018-10-02T09:54:39.070Z,99965.95
2018-10-02T09:57:12.079Z,99958.33
2018-10-02T09:59:39.656Z,99957.86
2018-10-02T10:03:17.742Z,99952.66
2018-10-02T10:05:46.252Z,99959.44
2018-10-02T10:08:14.400Z,99960.15
2018-10-02T10:10:42.633Z,99953.50
2018-10-02T10:13:12.931Z,99958.45
2018-10-02T10:15:41.301Z,99953.85
2018-10-02T10:18:12.571Z,99956.51
2018-10-02T10:20:40.205Z,99943.08
2018-10-02T10:23:07.786Z,99945.16
2018-10-02T10:25:43.587Z,99929.70
2018-10-02T10:28:12.097Z,99941.56
2018-10-02T10:30:40.403Z,99932.87
2018-10-02T10:33:10.170Z,99928.28
2018-10-02T10:35:38.354Z,99913.55
2018-10-02T10:38:05.900Z,99919.84
2018-10-02T10:40:36.682Z,99921.27
2018-10-02T10:43:06.051Z,99926.48
2018-10-02T10:45:35.271Z,99930.48
2018-10-02T10:48:07.293Z,99921.67
2018-10-02T10:50:37.255Z,99925.27
2018-10-02T10:53:06.149Z,99931.55
2018-10-02T10:55:41.730Z,99939.53
2018-10-02T10:58:11.164Z,99931.44
2018-10-02T11:00:44.793Z,99929.64
2018-10-02T11:03:16.181Z,99921.89
2018-10-02T11:05:44.345Z,99928.79
2018-10-02T11:08:12.524Z,99918.77
2018-10-02T11:10:42.589Z,99915.75
2018-10-02T11:13:10.139Z,99913.45
2018-10-02T11:15:39.309Z,99910.83
2018-10-02T11:18:08.493Z,99907.66
2018-10-02T11:20:37.945Z,99907.08
2018-10-02T11:23:06.469Z,99914.38
2018-10-02T11:25:42.263Z,99907.83
2018-10-02T11:28:11.290Z,99915.20
2018-10-02T11:30:43.693Z,99908.55
2018-10-02T11:33:11.459Z,99901.43
2018-10-02T11:35:39.875Z,99917.39
2018-10-02T11:38:07.746Z,99906.14
2018-10-02T11:40:36.245Z,99898.52
2018-10-02T11:43:06.544Z,99898.66
2018-10-02T11:45:34.393Z,99898.41
2018-10-02T11:48:02.969Z,99886.91
2018-10-02T11:50:31.345Z,99883.42
2018-10-02T11:52:59.616Z,99882.19
2018-10-02T11:55:28.188Z,99883.30
2018-10-02T11:57:58.462Z,99889.70
2018-10-02T12:00:28.228Z,99877.98
2018-10-02T12:02:56.429Z,99874.95
2018-10-02T12:05:32.904Z,99871.06
2018-10-02T12:08:00.490Z,99876.02
2018-10-02T12:10:29.714Z,99877.97
2018-10-02T12:13:00.981Z,99876.53
2018-10-02T12:15:29.405Z,99884.27
2018-10-02T12:17:56.999Z,99883.30
2018-10-02T12:20:29.445Z,99877.11
2018-10-02T12:23:00.064Z,99871.07
2018-10-02T12:28:00.059Z,99865.50
2018-10-02T12:30:28.119Z,99856.70
2018-10-02T12:32:55.999Z,99858.13
2018-10-02T12:35:24.911Z,99859.21
2018-10-02T12:37:52.985Z,99849.31
2018-10-02T12:40:20.510Z,99861.65
2018-10-02T12:42:49.346Z,99852.08
2018-10-02T12:45:17.528Z,99852.45
2018-10-02T12:47:49.331Z,99856.91
2018-10-02T12:50:23.442Z,99847.57
2018-10-02T12:52:53.463Z,99851.81
2018-10-02T12:55:22.285Z,99857.99
2018-10-02T12:57:52.786Z,99853.02
2018-10-02T13:00:24.452Z,99853.73
2018-10-02T13:02:52.600Z,99850.23
2018-10-02T13:05:22.974Z,99838.34
2018-10-02T13:07:51.983Z,99830.12
2018-10-02T13:10:20.213Z,99833.03
2018-10-02T13:12:48.886Z,99839.55
2018-10-02T13:15:16.465Z,99850.58
2018-10-02T13:17:44.682Z,99845.11
2018-10-02T13:20:19.881Z,99851.30
2018-10-02T13:22:47.428Z,99854.31
2018-10-02T13:25:17.690Z,99854.05
2018-10-02T13:27:49.590Z,99848.61
2018-10-02T13:30:19.952Z,99852.48
2018-10-02T13:32:48.555Z,99865.19
2018-10-02T13:35:18.491Z,99860.93
2018-10-02T13:37:55.575Z,99856.70
2018-10-02T13:40:31.570Z,99867.45
2018-10-02T13:42:59.938Z,99874.34
2018-10-02T13:45:30.468Z,99871.45
2018-10-02T13:48:01.834Z,99866.69
2018-10-02T13:50:32.245Z,99863.79
2018-10-02T13:53:00.727Z,99863.87
2018-10-02T13:55:30.586Z,99873.69
2018-10-02T13:58:02.093Z,99877.41
2018-10-02T14:00:30.647Z,99892.19
2018-10-02T14:02:59.451Z,99886.83
2018-10-02T14:05:27.026Z,99881.12
2018-10-02T14:07:54.624Z,99883.28
2018-10-02T14:10:25.950Z,99884.81
2018-10-02T14:12:55.337Z,99862.98
2018-10-02T14:15:24.644Z,99870.34
2018-10-02T14:17:57.397Z,99865.80
2018-10-02T14:20:25.637Z,99858.42
2018-10-02T14:22:53.559Z,99850.53
2018-10-02T14:25:23.230Z,99868.30
2018-10-02T14:27:51.743Z,99854.36
2018-10-02T14:30:21.554Z,99860.28
2018-10-02T14:32:50.550Z,99855.17
2018-10-02T14:35:19.089Z,99850.90
2018-10-02T14:37:48.120Z,99857.64
2018-10-02T14:40:22.546Z,99851.44
2018-10-02T14:42:51.993Z,99858.22
2018-10-02T14:45:20.188Z,99868.61
2018-10-02T14:47:50.504Z,99859.97
2018-10-02T14:50:19.231Z,99856.08
2018-10-02T14:52:49.034Z,99866.00
2018-10-02T14:55:19.362Z,99866.22
2018-10-02T14:57:48.480Z,99863.40
2018-10-02T15:00:16.064Z,99883.52
2018-10-02T15:02:46.827Z,99877.91
2018-10-02T15:05:14.650Z,99878.13
2018-10-02T15:07:46.341Z,99880.91
2018-10-02T15:10:19.813Z,99878.66
2018-10-02T15:12:47.325Z,99867.09
2018-10-02T15:15:16.358Z,99877.95
2018-10-02T15:17:45.214Z,99874.86
2018-10-02T15:20:15.185Z,99871.66
2018-10-02T15:22:46.443Z,99868.52
2018-10-02T15:25:15.325Z,99860.53
2018-10-02T15:27:45.189Z,99860.55
2018-10-02T15:30:13.353Z,99862.69
2018-10-02T15:32:44.585Z,99863.59
2018-10-02T15:35:14.376Z,99866.97
2018-10-02T15:37:42.670Z,99860.58
2018-10-02T15:40:11.404Z,99873.08
2018-10-02T15:42:38.911Z,99868.44
2018-10-02T15:45:06.494Z,99868.95
2018-10-02T15:47:34.441Z,99870.28
2018-10-02T15:50:03.415Z,99868.95
2018-10-02T15:52:31.698Z,99862.39
2018-10-02T15:55:02.129Z,99866.18
2018-10-02T15:57:31.518Z,99862.30
2018-10-02T16:00:01.303Z,99863.86
2018-10-02T16:02:31.237Z,99867.09
2018-10-02T16:05:01.674Z,99851.58
2018-10-02T16:07:36.344Z,99853.95
2018-10-02T16:10:07.336Z,99866.71
2018-10-02T16:12:35.630Z,99865.25
2018-10-02T16:15:03.945Z,99865.47
2018-10-02T16:17:36.359Z,99863.84
2018-10-02T16:20:03.914Z,99873.55
2018-10-02T16:22:31.491Z,99875.52
2018-10-02T16:24:59.537Z,99880.87
2018-10-02T16:27:28.589Z,99889.53
2018-10-02T16:29:58.088Z,99885.64
2018-10-02T16:32:27.615Z,99892.36
2018-10-02T16:34:56.717Z,99901.14
2018-10-02T16:37:25.106Z,99891.57
2018-10-02T16:39:53.384Z,99896.22
2018-10-02T16:42:23.514Z,99895.13
2018-10-02T16:44:53.383Z,99913.49
2018-10-02T16:47:24.598Z,99914.98
2018-10-02T16:49:58.135Z,99932.48
2018-10-02T16:52:25.695Z,99928.35
2018-10-02T16:54:57.774Z,99932.96
2018-10-02T16:57:27.316Z,99930.29
2018-10-02T16:59:55.247Z,99930.03
2018-10-02T17:05:04.510Z,99937.70
2018-10-02T17:07:32.702Z,99943.17
2018-10-02T17:10:02.834Z,99944.03
2018-10-02T17:12:31.308Z,99949.00
2018-10-02T17:15:00.083Z,99951.48
2018-10-02T17:20:11.384Z,99958.76
2018-10-02T17:25:14.910Z,99958.41
2018-10-02T17:27:46.051Z,99966.70
2018-10-02T17:30:16.161Z,99978.98
2018-10-02T17:32:45.125Z,99981.65
2018-10-02T17:35:15.767Z,99987.15
2018-10-02T17:37:43.317Z,99980.82
2018-10-02T17:40:12.508Z,99989.82
2018-10-02T17:42:43.366Z,99998.31
2018-10-02T17:45:13.949Z,100002.31
2018-10-02T17:47:41.815Z,99994.08
2018-10-02T17:50:12.485Z,99992.27
2018-10-02T17:52:41.194Z,99999.19
2018-10-02T17:55:10.513Z,100004.18
2018-10-02T17:57:39.169Z,100018.88
2018-10-02T18:00:09.188Z,100013.53
2018-10-02T18:02:36.709Z,100016.55
2018-10-02T18:05:04.255Z,100019.03
2018-10-02T18:07:36.053Z,100015.50
2018-10-02T18:10:04.244Z,100015.14
2018-10-02T18:12:32.769Z,100022.80
2018-10-02T18:15:01.454Z,100019.63
2018-10-02T18:17:31.490Z,100024.97
2018-10-02T18:20:00.987Z,100025.12
2018-10-02T18:22:30.380Z,100031.80
2018-10-02T18:25:02.588Z,100033.97
2018-10-02T18:27:33.273Z,100035.06
2018-10-02T18:30:03.409Z,100037.45
2018-10-02T18:32:34.016Z,100035.13
2018-10-02T18:35:02.410Z,100026.48
2018-10-02T18:37:38.778Z,100033.67
2018-10-02T18:40:07.502Z,100034.30
2018-10-02T18:42:35.039Z,100033.72
2018-10-02T18:45:03.648Z,100040.87
2018-10-02T18:50:20.594Z,100030.66
2018-10-02T18:52:52.251Z,100029.95
2018-10-02T18:55:22.217Z,100026.66
2018-10-02T18:58:20.480Z,100023.16
2018-10-02T19:00:59.513Z,100032.98
2018-10-02T19:03:29.432Z,100042.26
2018-10-02T19:05:59.724Z,100043.13
2018-10-02T19:08:32.347Z,100042.31
2018-10-02T19:11:05.784Z,100049.27
2018-10-02T19:13:35.253Z,100053.39
2018-10-02T19:16:09.313Z,100060.06
2018-10-02T19:18:41.833Z,100056.06
2018-10-02T19:21:10.517Z,100062.38
2018-10-02T19:23:41.306Z,100063.36
2018-10-02T19:26:42.483Z,100075.03
2018-10-02T19:29:10.305Z,100084.02
2018-10-02T19:31:47.426Z,100083.03
2018-10-02T19:34:15.323Z,100083.16
2018-10-02T19:36:44.303Z,100076.24
2018-10-02T19:39:24.415Z,100072.01
2018-10-02T19:41:52.615Z,100083.19
2018-10-02T19:44:26.958Z,100084.77
2018-10-02T19:46:56.617Z,100079.81
2018-10-02T19:49:32.345Z,100078.83
2018-10-02T19:52:15.659Z,100092.77
2018-10-02T19:54:43.392Z,100094.46
2018-10-02T19:57:12.617Z,100095.68
2018-10-02T19:59:42.268Z,100101.02
2018-10-02T20:02:11.551Z,100101.22
2018-10-02T20:04:41.378Z,100097.45
2018-10-02T20:07:10.580Z,100102.55
2018-10-02T20:09:39.766Z,100104.95
2018-10-02T20:12:09.722Z,100102.63
2018-10-02T20:14:40.121Z,100102.52
2018-10-02T20:17:08.625Z,100106.02
2018-10-02T20:19:38.314Z,100103.94
2018-10-02T20:22:05.927Z,100105.15
2018-10-02T20:24:36.356Z,100100.16
2018-10-02T20:27:04.605Z,100102.71
2018-10-02T20:29:36.490Z,100108.77
2018-10-02T20:34:38.561Z,100109.00
2018-10-02T20:37:08.087Z,100108.37
2018-10-02T20:39:36.206Z,100114.92
2018-10-02T20:42:05.445Z,100110.45
2018-10-02T20:44:35.882Z,100108.72
2018-10-02T20:47:03.449Z,100110.05
2018-10-02T20:49:38.162Z,100116.38
2018-10-02T20:52:06.625Z,100117.72
2018-10-02T20:54:36.709Z,100127.07
2018-10-02T20:57:07.840Z,100131.58
2018-10-02T20:59:35.395Z,100132.05
2018-10-02T21:02:06.982Z,100127.70
2018-10-02T21:04:34.916Z,100133.16
2018-10-02T21:07:02.539Z,100133.16
2018-10-02T21:09:30.471Z,100127.97
2018-10-02T21:14:48.461Z,100127.58
2018-10-02T21:17:19.592Z,100127.23
2018-10-02T21:19:49.172Z,100129.30
2018-10-02T21:24:46.480Z,100125.89
2018-10-02T21:27:16.225Z,100127.34
2018-10-02T21:29:44.502Z,100125.37
2018-10-02T21:32:14.066Z,100121.72
2018-10-02T21:34:43.344Z,100118.07
2018-10-02T21:37:10.949Z,100124.91
2018-10-02T21:39:40.876Z,100124.55
2018-10-02T21:42:08.503Z,100120.16
2018-10-02T21:44:37.865Z,100129.15
2018-10-02T21:47:08.277Z,100119.45
2018-10-02T21:49:37.069Z,100125.66
2018-10-02T21:52:05.431Z,100123.96
2018-10-02T21:54:35.597Z,100113.52
2018-10-02T21:57:07.351Z,100121.17
2018-10-02T21:59:37.883Z,100116.81
2018-10-02T22:02:06.247Z,100115.95
2018-10-02T22:04:36.456Z,100116.23
2018-10-02T22:07:06.116Z,100122.55
2018-10-02T22:09:34.734Z,100116.85
2018-10-02T22:14:36.510Z,100126.05
2018-10-02T22:17:05.657Z,100118.90
2018-10-02T22:19:34.548Z,100115.88
2018-10-02T22:22:02.463Z,100133.59
2018-10-02T22:24:31.409Z,100129.11
2018-10-02T22:26:59.654Z,100133.83
2018-10-02T22:29:30.954Z,100131.86
2018-10-02T22:31:59.090Z,100128.56
2018-10-02T22:34:27.248Z,100133.31
2018-10-02T22:36:59.331Z,100136.34
2018-10-02T22:39:26.894Z,100125.66
2018-10-02T22:41:54.447Z,100132.33
2018-10-02T22:44:23.461Z,100130.64
2018-10-02T22:46:51.937Z,100128.92
2018-10-02T22:49:19.457Z,100119.37
2018-10-02T22:51:47.279Z,100111.47
2018-10-02T22:54:15.525Z,100109.91
2018-10-02T22:56:43.317Z,100114.03
2018-10-02T22:59:12.296Z,100118.55
2018-10-02T23:01:39.854Z,100115.28
2018-10-02T23:04:07.418Z,100115.28
2018-10-02T23:06:37.426Z,100119.29
2018-10-02T23:09:08.950Z,100133.35
2018-10-02T23:11:36.472Z,100122.31
2018-10-02T23:14:09.337Z,100133.00
2018-10-02T23:16:36.859Z,100126.67
2018-10-02T23:19:04.512Z,100124.98
2018-10-02T23:21:32.524Z,100121.25
2018-10-02T23:24:00.779Z,100123.33
2018-10-02T23:26:28.941Z,100132.80
2018-10-02T23:28:57.923Z,100139.00
2018-10-02T23:31:25.484Z,100143.36
2018-10-02T23:33:53.004Z,100140.18
2018-10-02T23:36:21.634Z,100142.84
2018-10-02T23:38:49.165Z,100134.99
2018-10-02T23:41:16.734Z,100140.09
2018-10-02T23:43:46.177Z,100137.19
2018-10-02T23:46:14.222Z,100145.58
2018-10-02T23:48:44.150Z,100150.56
2018-10-02T23:51:12.597Z,100161.72
2018-10-02T23:53:40.294Z,100166.20
2018-10-02T23:56:08.810Z,100171.54
2018-10-02T23:58:37.564Z,100160.66
